Time;durP1;ratioP1;P1;durP2;ratioP2;P2;SDS_P1;SDS_P2;PMS_P1;PMS_P2;Temp;Humidity;BMP_temperature;BMP_pressure;BME280_temperature;BME280_humidity;BME280_pressure;Samples;Min_cycle;Max_cycle;Signal;HPM_P1;HPM_P2
2022/11/28 00:02:27;;;;;;;20.43;14.10;;;;;;;6.11;55.52;99732.78;10532859;28;20603;-67
2022/11/28 00:07:29;;;;;;;21.37;14.47;;;;;;;5.67;55.96;99728.31;10531023;28;20246;-67
2022/11/28 00:12:31;;;;;;;21.63;14.47;;;;;;;7.35;53.06;99732.25;10540582;28;20426;-68
2022/11/28 00:17:32;;;;;;;18.00;12.93;;;;;;;7.56;52.08;99749.59;10540788;28;20813;-67
2022/11/28 00:22:34;;;;;;;18.90;14.10;;;;;;;6.39;53.51;99721.94;10517641;28;20252;-67
2022/11/28 00:27:36;;;;;;;20.43;13.17;;;;;;;7.36;51.92;99741.09;10541861;28;20234;-67
2022/11/28 00:32:37;;;;;;;18.13;12.83;;;;;;;7.36;52.14;99754.41;10540945;28;20237;-67
2022/11/28 00:37:39;;;;;;;18.27;13.43;;;;;;;6.23;54.18;99720.06;10541189;28;20230;-67
2022/11/28 00:42:40;;;;;;;18.67;13.87;;;;;;;5.62;56.11;99727.94;10543291;28;20234;-67
2022/11/28 00:47:42;;;;;;;23.03;14.23;;;;;;;4.53;59.06;99704.06;10541184;28;20321;-68
2022/11/28 00:52:44;;;;;;;21.70;14.90;;;;;;;5.07;57.51;99701.50;10541602;28;20276;-67
2022/11/28 00:57:45;;;;;;;20.00;14.30;;;;;;;4.65;58.32;99686.16;10541633;28;20294;-68
2022/11/28 01:02:47;;;;;;;22.70;16.03;;;;;;;4.43;58.88;99664.34;10541587;28;20225;-67
2022/11/28 01:07:49;;;;;;;23.80;14.77;;;;;;;7.10;54.16;99686.13;10538316;28;20237;-67
2022/11/28 01:12:50;;;;;;;21.77;15.30;;;;;;;6.23;55.25;99662.41;10540242;28;20269;-68
2022/11/28 01:17:52;;;;;;;21.87;15.27;;;;;;;6.07;55.58;99657.00;10539755;28;20718;-68
2022/11/28 01:22:54;;;;;;;19.53;13.83;;;;;;;7.62;52.81;99689.50;10539518;28;20229;-67
2022/11/28 01:27:55;;;;;;;22.70;15.60;;;;;;;4.49;58.00;99654.97;10538656;28;20243;-68
2022/11/28 01:32:57;;;;;;;20.10;14.67;;;;;;;6.68;54.19;99635.66;10538576;28;20222;-68
2022/11/28 01:37:59;;;;;;;19.70;15.00;;;;;;;6.74;54.08;99648.31;10539965;28;20239;-67
2022/11/28 01:43:00;;;;;;;20.50;13.47;;;;;;;7.71;51.51;99689.34;10538402;28;20587;-68
2022/11/28 01:48:03;;;;;;;17.17;13.53;;;;;;;4.98;57.04;99655.53;10545543;28;20228;-68
2022/11/28 01:53:09;;;;;;;19.83;13.70;;;;;;;5.89;55.48;99641.13;10548465;28;20294;-68
2022/11/28 01:58:11;;;;;;;17.47;14.00;;;;;;;4.95;56.72;99637.25;10513754;28;20388;-68
2022/11/28 02:03:42;;;;;;;20.70;13.63;;;;;;;5.11;56.88;99652.47;10530134;28;20230;-67
2022/11/28 02:08:44;;;;;;;20.23;14.47;;;;;;;4.94;57.80;99660.25;10533061;28;20234;-67
2022/11/28 02:14:04;;;;;;;16.77;13.97;;;;;;;5.66;55.90;99635.53;10539923;28;20739;-67
2022/11/28 02:19:45;;;;;;;16.70;13.40;;;;;;;7.44;52.78;99631.09;10533763;28;20701;-67
2022/11/28 02:25:05;;;;;;;17.10;12.97;;;;;;;7.66;51.44;99653.53;10534669;28;20245;-67
2022/11/28 02:30:10;;;;;;;16.37;11.90;;;;;;;7.44;51.65;99634.59;10533167;28;20659;-67
2022/11/28 02:35:20;;;;;;;16.50;12.10;;;;;;;7.42;51.00;99625.09;10536224;28;20239;-68
2022/11/28 02:40:40;;;;;;;15.57;12.00;;;;;;;6.20;53.71;99630.00;10544405;28;20244;-67
2022/11/28 02:46:09;;;;;;;17.97;12.03;;;;;;;7.54;50.89;99645.06;10535276;28;20268;-68
2022/11/28 02:51:13;;;;;;;16.60;11.43;;;;;;;6.90;52.22;99621.78;10534525;28;20655;-67
2022/11/28 02:56:15;;;;;;;15.77;11.70;;;;;;;6.60;53.63;99628.50;10547124;28;20543;-67
2022/11/28 03:01:29;;;;;;;14.10;11.70;;;;;;;6.00;54.48;99638.22;10540788;28;20237;-68
2022/11/28 03:06:57;;;;;;;16.70;12.03;;;;;;;4.92;56.48;99626.94;10529776;28;20271;-67
2022/11/28 03:12:36;;;;;;;17.03;13.20;;;;;;;4.65;57.08;99611.94;10535281;28;20234;-68
2022/11/28 03:18:06;;;;;;;16.97;12.27;;;;;;;5.06;56.64;99615.78;10536647;28;20237;-67
2022/11/28 03:23:12;;;;;;;16.43;13.13;;;;;;;6.66;53.85;99595.94;10531326;28;20584;-67
2022/11/28 03:28:23;;;;;;;13.70;11.33;;;;;;;7.40;51.61;99616.47;10533773;28;20238;-68
2022/11/28 03:33:29;;;;;;;16.30;12.20;;;;;;;5.37;54.46;99606.56;10535824;28;20315;-67
2022/11/28 03:38:37;;;;;;;13.90;11.53;;;;;;;6.70;52.44;99577.81;10536153;28;20242;-67
2022/11/28 03:43:45;;;;;;;13.97;11.23;;;;;;;7.64;50.37;99629.72;10515486;28;20241;-68
2022/11/28 03:48:53;;;;;;;14.57;10.83;;;;;;;7.07;51.28;99600.50;10540207;28;20234;-68
2022/11/28 03:54:21;;;;;;;13.50;10.37;;;;;;;7.21;50.96;99631.78;10542818;28;20228;-68
2022/11/28 03:59:32;;;;;;;13.53;11.13;;;;;;;6.72;51.76;99603.25;10486410;28;20284;-67
2022/11/28 04:04:47;;;;;;;13.87;11.03;;;;;;;7.01;51.42;99628.59;10524330;28;20235;-68
2022/11/28 04:10:28;;;;;;;15.20;10.70;;;;;;;6.98;51.22;99624.41;10533297;28;20244;-68
2022/11/28 04:15:44;;;;;;;14.37;11.13;;;;;;;5.43;53.99;99627.19;10526074;28;20222;-67
2022/11/28 04:21:03;;;;;;;14.23;11.27;;;;;;;5.73;54.80;99639.22;10531481;28;20346;-68
2022/11/28 04:26:17;;;;;;;15.40;11.23;;;;;;;6.99;51.83;99618.13;10511482;28;20238;-68
2022/11/28 04:31:21;;;;;;;14.30;10.33;;;;;;;6.70;51.64;99599.94;10533764;28;20646;-68
2022/11/28 04:36:25;;;;;;;15.33;10.73;;;;;;;6.99;51.07;99604.00;10533104;28;20227;-67
2022/11/28 04:41:30;;;;;;;12.90;10.83;;;;;;;5.35;53.96;99609.38;10516975;28;20657;-67
2022/11/28 04:46:54;;;;;;;12.83;10.60;;;;;;;5.86;54.06;99631.66;10528641;28;20241;-67
2022/11/28 04:52:30;;;;;;;13.23;11.70;;;;;;;7.09;51.41;99604.66;10513699;28;20936;-67
2022/11/28 04:58:10;;;;;;;17.67;14.37;;;;;;;6.64;52.04;99589.94;10531853;28;20227;-67
2022/11/28 05:03:38;;;;;;;15.40;10.93;;;;;;;6.20;53.08;99619.38;10527966;28;20722;-67
2022/11/28 05:09:04;;;;;;;13.00;11.60;;;;;;;6.43;52.71;99603.66;10532620;28;20599;-68
2022/11/28 05:14:31;;;;;;;13.13;10.07;;;;;;;7.33;51.07;99606.47;10525044;28;20230;-67
2022/11/28 05:19:56;;;;;;;15.73;11.30;;;;;;;4.57;56.04;99533.97;10531123;28;20317;-67
2022/11/28 05:25:22;;;;;;;15.93;12.57;;;;;;;5.21;55.27;99554.25;10507814;28;20238;-67
2022/11/28 05:30:57;;;;;;;15.40;11.87;;;;;;;7.16;52.23;99562.25;10508312;28;20636;-67
2022/11/28 05:36:23;;;;;;;14.27;11.77;;;;;;;7.33;51.32;99579.03;10507320;28;20246;-67
2022/11/28 05:41:48;;;;;;;16.27;12.00;;;;;;;5.83;53.78;99562.94;10519206;28;20266;-67
2022/11/28 05:47:14;;;;;;;15.90;11.67;;;;;;;6.57;52.17;99563.19;10530539;28;20701;-68
2022/11/28 05:52:40;;;;;;;14.93;11.20;;;;;;;7.26;51.26;99594.84;10515303;28;20231;-68
2022/11/28 05:58:05;;;;;;;13.23;11.63;;;;;;;4.79;55.20;99550.41;10511259;28;20226;-67
2022/11/28 06:03:31;;;;;;;15.93;11.97;;;;;;;4.91;56.17;99593.44;10525639;28;20325;-67
2022/11/28 06:08:57;;;;;;;13.43;10.80;;;;;;;7.01;52.41;99567.41;10530308;28;20226;-67
2022/11/28 06:14:22;;;;;;;16.10;12.50;;;;;;;6.15;54.01;99563.25;10526398;28;20887;-67
2022/11/28 06:19:49;;;;;;;15.43;11.33;;;;;;;6.24;52.95;99547.16;10527256;28;20657;-67
2022/11/28 06:25:14;;;;;;;15.73;11.67;;;;;;;5.17;56.00;99574.94;10522552;28;20234;-67
2022/11/28 06:30:42;;;;;;;16.73;12.70;;;;;;;5.86;54.61;99562.63;10527747;28;20226;-67
2022/11/28 06:36:09;;;;;;;17.57;13.27;;;;;;;4.81;57.26;99563.53;10506686;28;20234;-68
2022/11/28 06:41:35;;;;;;;17.50;13.73;;;;;;;4.32;58.74;99551.47;10529686;28;20250;-67
2022/11/28 06:47:01;;;;;;;18.00;13.33;;;;;;;4.45;58.24;99532.53;10527707;28;20258;-67
2022/11/28 06:52:26;;;;;;;20.23;14.67;;;;;;;4.77;58.36;99544.44;10511846;28;20234;-68
2022/11/28 06:57:52;;;;;;;19.23;13.67;;;;;;;4.02;59.70;99529.59;10509642;28;20504;-67
2022/11/28 07:03:18;;;;;;;16.97;13.27;;;;;;;4.90;58.26;99538.75;10521659;28;20241;-67
2022/11/28 07:08:45;;;;;;;19.00;14.43;;;;;;;5.50;56.56;99501.69;10528530;28;20233;-68
2022/11/28 07:14:10;;;;;;;17.37;12.77;;;;;;;6.96;52.63;99516.53;10526854;28;20241;-67
2022/11/28 07:19:36;;;;;;;19.73;15.67;;;;;;;5.33;55.59;99547.69;10514495;28;20733;-67
2022/11/28 07:25:01;;;;;;;22.23;17.17;;;;;;;6.34;53.68;99548.84;10531990;28;20254;-67
2022/11/28 07:30:27;;;;;;;18.00;13.40;;;;;;;5.96;54.06;99538.59;10536378;28;20229;-67
2022/11/28 07:35:54;;;;;;;21.27;16.67;;;;;;;7.06;52.50;99564.25;10534693;28;20883;-68
2022/11/28 07:41:21;;;;;;;15.53;13.43;;;;;;;7.72;50.93;99610.25;10535109;28;20226;-66
2022/11/28 07:46:47;;;;;;;18.80;13.53;;;;;;;7.07;51.85;99576.53;10528708;28;20225;-67
2022/11/28 07:52:12;;;;;;;17.30;12.67;;;;;;;7.86;50.55;99641.53;10538370;28;20226;-67
2022/11/28 07:57:38;;;;;;;15.57;11.93;;;;;;;7.26;51.77;99628.63;10523598;28;20250;-67
2022/11/28 08:03:04;;;;;;;17.10;12.17;;;;;;;6.86;51.55;99588.50;10530695;28;20229;-67
2022/11/28 08:08:30;;;;;;;19.73;12.67;;;;;;;5.43;55.24;99617.41;10529417;28;20584;-67
2022/11/28 08:13:56;;;;;;;16.70;12.77;;;;;;;5.12;55.27;99619.66;10532480;28;20226;-66
2022/11/28 08:19:22;;;;;;;21.73;16.27;;;;;;;6.59;54.32;99587.75;10532415;28;20225;-66
2022/11/28 08:24:48;;;;;;;23.90;14.63;;;;;;;6.33;53.88;99595.84;10527934;28;20235;-66
2022/11/28 08:30:14;;;;;;;27.93;18.43;;;;;;;5.70;56.17;99615.63;10530256;28;20243;-67
2022/11/28 08:35:40;;;;;;;33.10;16.97;;;;;;;7.12;53.45;99583.03;10518413;28;20231;-67
2022/11/28 08:41:11;;;;;;;50.03;17.17;;;;;;;6.86;53.63;99574.38;10532365;28;20230;-66
2022/11/28 08:46:37;;;;;;;39.00;16.00;;;;;;;6.46;55.79;99583.91;10532863;28;20231;-67
2022/11/28 08:52:04;;;;;;;29.17;17.40;;;;;;;5.91;56.09;99569.25;10521222;28;20238;-69
2022/11/28 08:57:29;;;;;;;38.17;22.37;;;;;;;6.38;55.44;99579.41;10517618;28;20238;-67
2022/11/28 09:02:56;;;;;;;30.17;19.77;;;;;;;7.08;54.16;99586.19;10526745;28;20231;-67
2022/11/28 09:08:22;;;;;;;25.50;16.60;;;;;;;7.23;53.60;99570.41;10531241;28;20326;-67
2022/11/28 09:13:48;;;;;;;27.10;21.70;;;;;;;6.82;55.00;99581.88;10527742;28;20714;-69
2022/11/28 09:19:13;;;;;;;25.80;17.77;;;;;;;6.81;54.78;99570.38;10505094;28;20223;-66
2022/11/28 09:24:39;;;;;;;20.73;15.90;;;;;;;4.89;59.29;99582.97;10502789;28;20234;-66
2022/11/28 09:30:06;;;;;;;19.63;14.90;;;;;;;6.46;56.82;99586.56;10525144;28;20238;-68
2022/11/28 09:35:32;;;;;;;19.23;13.97;;;;;;;5.66;57.93;99593.88;10531660;28;20233;-66
2022/11/28 09:41:00;;;;;;;17.43;13.83;;;;;;;6.05;57.76;99574.00;10532208;28;20231;-66
2022/11/28 09:46:34;;;;;;;19.50;14.83;;;;;;;6.32;57.67;99558.81;10527364;28;20246;-66
2022/11/28 09:52:28;;;;;;;20.67;14.60;;;;;;;6.76;56.19;99555.91;10521090;28;20226;-66
2022/11/28 09:57:54;;;;;;;21.00;15.47;;;;;;;6.99;56.27;99551.59;10514482;28;20227;-66
2022/11/28 10:03:54;;;;;;;20.83;16.10;;;;;;;6.27;57.73;99526.56;10524061;28;20226;-66
2022/11/28 10:09:46;;;;;;;18.33;13.90;;;;;;;6.09;58.34;99521.38;10527584;28;20235;-66
2022/11/28 10:15:28;;;;;;;21.53;14.47;;;;;;;6.16;57.27;99509.09;10528655;28;20225;-66
2022/11/28 10:20:59;;;;;;;21.80;15.73;;;;;;;6.73;56.95;99511.81;10530797;28;20221;-67
2022/11/28 10:26:29;;;;;;;20.97;15.60;;;;;;;6.91;57.14;99511.69;10527237;28;20242;-66
2022/11/28 10:32:02;;;;;;;19.37;14.30;;;;;;;6.89;56.90;99531.50;10528035;28;20218;-66
2022/11/28 10:37:30;;;;;;;19.60;14.53;;;;;;;6.62;57.75;99505.03;10528434;28;20280;-66
2022/11/28 10:43:04;;;;;;;20.83;14.97;;;;;;;7.13;56.10;99512.03;10531215;28;20315;-66
2022/11/28 10:49:11;;;;;;;20.57;16.67;;;;;;;6.75;57.88;99511.66;10522679;28;20234;-68
2022/11/28 10:55:27;;;;;;;22.27;16.23;;;;;;;6.79;57.40;99507.72;10517383;28;20766;-66
2022/11/28 19:12:08;;;;;;;18.73;14.80;;;;;;;8.58;57.52;99584.59;10478600;28;20249;-71
2022/11/28 19:17:11;;;;;;;24.77;19.97;;;;;;;7.73;60.03;99564.81;10479408;28;20239;-71
2022/11/28 19:22:12;;;;;;;38.93;29.00;;;;;;;8.61;58.32;99600.25;10421049;28;20227;-67
2022/11/28 19:27:14;;;;;;;80.03;52.07;;;;;;;8.69;58.42;99606.53;10485404;28;20230;-68
2022/11/28 19:32:16;;;;;;;61.27;42.33;;;;;;;9.37;56.81;99629.75;10477488;28;20234;-68
2022/11/28 19:37:18;;;;;;;52.97;39.63;;;;;;;9.59;55.59;99636.06;10476827;28;20236;-69
2022/11/28 19:42:20;;;;;;;30.67;22.10;;;;;;;9.24;56.24;99621.53;10451509;28;20232;-69
2022/11/28 19:47:22;;;;;;;25.93;22.23;;;;;;;9.55;55.74;99641.94;10486313;28;20249;-67
2022/11/28 19:52:23;;;;;;;30.53;25.43;;;;;;;8.77;56.90;99623.31;10472185;28;20225;-68
2022/11/28 19:57:25;;;;;;;28.73;25.03;;;;;;;9.22;56.58;99634.22;10458254;28;20235;-70
2022/11/28 20:02:27;;;;;;;31.97;23.40;;;;;;;9.56;55.90;99644.44;10449502;28;20231;-68
2022/11/28 20:07:28;;;;;;;27.87;21.93;;;;;;;9.43;55.94;99648.75;10487116;28;20238;-69
2022/11/28 20:12:30;;;;;;;29.37;21.90;;;;;;;9.79;55.68;99662.28;10490797;28;20293;-70
2022/11/28 20:17:32;;;;;;;30.90;23.67;;;;;;;9.25;56.44;99643.72;10488147;28;20297;-70
2022/11/28 20:22:34;;;;;;;25.63;20.43;;;;;;;9.60;55.12;99674.28;10490677;28;20655;-67
2022/11/28 20:27:35;;;;;;;26.00;18.40;;;;;;;9.85;55.13;99682.94;10484662;28;20237;-68
2022/11/28 20:32:37;;;;;;;23.47;19.50;;;;;;;9.53;55.72;99666.19;10486136;28;20238;-71
2022/11/28 20:37:39;;;;;;;22.73;18.97;;;;;;;9.16;56.39;99653.63;10481892;28;20743;-70
2022/11/28 20:42:40;;;;;;;21.73;16.90;;;;;;;9.78;55.74;99688.16;10485632;28;20228;-68
2022/11/28 20:47:42;;;;;;;17.47;15.07;;;;;;;9.51;55.88;99670.88;10485057;28;20235;-68
2022/11/28 20:52:50;;;;;;;20.10;15.87;;;;;;;9.62;55.94;99677.63;10488152;28;20227;-70
2022/11/28 20:57:51;;;;;;;23.13;16.67;;;;;;;9.85;55.49;99693.63;10496249;28;20223;-69
2022/11/28 21:02:53;;;;;;;58.23;30.80;;;;;;;8.41;58.36;99642.53;10488971;28;20228;-70
2022/11/28 21:07:55;;;;;;;39.53;27.80;;;;;;;7.77;60.75;99631.88;10493837;28;20234;-71
2022/11/28 21:12:57;;;;;;;26.40;17.53;;;;;;;8.24;60.03;99624.94;10495420;28;20301;-68
2022/11/28 21:17:59;;;;;;;23.90;17.97;;;;;;;8.38;58.92;99613.53;10492315;28;20606;-68
2022/11/28 21:23:00;;;;;;;33.77;24.17;;;;;;;8.71;58.57;99628.53;10490306;28;20726;-67
2022/11/28 21:28:02;;;;;;;26.67;21.80;;;;;;;7.70;59.80;99594.44;10489220;28;20924;-68
2022/11/28 21:33:04;;;;;;;28.77;21.03;;;;;;;8.13;60.10;99609.31;10480919;28;20256;-68
2022/11/28 21:38:06;;;;;;;31.27;21.43;;;;;;;7.45;61.46;99579.53;10484315;28;20361;-68
2022/11/28 21:43:08;;;;;;;32.40;21.37;;;;;;;7.78;61.07;99588.28;10479254;28;20740;-68
2022/11/28 21:48:12;;;;;;;28.63;19.93;;;;;;;7.72;61.13;99589.78;10484312;28;20288;-68
2022/11/28 21:53:15;;;;;;;28.37;19.57;;;;;;;7.68;60.47;99582.31;10485821;28;20238;-68
2022/11/28 21:58:17;;;;;;;29.10;19.37;;;;;;;8.03;60.45;99590.88;10484307;28;20430;-68
2022/11/28 22:03:27;;;;;;;25.10;18.03;;;;;;;7.88;59.97;99585.41;10490676;28;20240;-68
2022/11/28 22:08:29;;;;;;;28.67;20.30;;;;;;;7.95;60.89;99581.09;10483812;28;20238;-68
2022/11/28 22:13:31;;;;;;;24.87;18.83;;;;;;;8.07;61.00;99592.19;10476709;28;20256;-68
2022/11/28 22:18:33;;;;;;;27.13;19.10;;;;;;;7.77;61.07;99591.09;10480959;28;20242;-68
2022/11/28 22:23:36;;;;;;;29.73;20.47;;;;;;;7.86;61.33;99590.09;10486809;28;20227;-68
2022/11/28 22:28:40;;;;;;;29.67;20.30;;;;;;;7.97;60.84;99589.72;10482969;28;20235;-68
2022/11/28 22:33:42;;;;;;;24.53;18.33;;;;;;;8.39;60.08;99598.41;10481255;28;20734;-68
2022/11/28 22:38:45;;;;;;;22.97;18.00;;;;;;;6.98;62.67;99552.59;10481452;28;20239;-68
2022/11/28 22:43:47;;;;;;;23.30;16.93;;;;;;;7.82;61.37;99584.25;10479155;28;20784;-68
2022/11/28 22:48:49;;;;;;;25.53;18.73;;;;;;;7.50;62.09;99577.19;10472375;28;20241;-69
2022/11/28 22:53:55;;;;;;;25.30;17.83;;;;;;;7.53;62.54;99587.50;10446845;28;20239;-67
2022/11/28 22:58:57;;;;;;;27.80;18.67;;;;;;;7.33;62.56;99563.88;10438303;28;20239;-67
2022/11/28 23:03:58;;;;;;;28.33;20.57;;;;;;;7.73;62.38;99580.78;10435849;28;20236;-69
2022/11/28 23:09:04;;;;;;;27.33;19.77;;;;;;;8.40;60.08;99595.53;10431809;28;20325;-66
2022/11/28 23:14:05;;;;;;;25.90;19.43;;;;;;;6.75;64.31;99554.22;10463129;28;20243;-67
2022/11/28 23:19:14;;;;;;;27.87;20.57;;;;;;;7.06;63.29;99567.72;10434653;28;20235;-69
2022/11/28 23:24:18;;;;;;;25.40;18.47;;;;;;;7.40;61.88;99557.91;10454699;28;20241;-69
2022/11/28 23:29:20;;;;;;;24.57;18.97;;;;;;;7.62;62.22;99582.97;10448088;28;20930;-70
2022/11/28 23:34:22;;;;;;;26.23;18.87;;;;;;;7.79;61.26;99589.91;10446211;28;20218;-69
2022/11/28 23:39:23;;;;;;;25.83;17.40;;;;;;;8.02;61.57;99589.22;10487205;28;20236;-66
2022/11/28 23:44:25;;;;;;;22.77;16.27;;;;;;;7.32;62.77;99564.88;10476950;28;20235;-67
2022/11/28 23:49:27;;;;;;;24.40;16.20;;;;;;;7.19;62.95;99559.25;10487026;28;20242;-69
2022/11/28 23:54:28;;;;;;;23.37;15.67;;;;;;;8.07;61.85;99593.03;10489745;28;20238;-69
2022/11/28 23:59:30;;;;;;;19.80;14.00;;;;;;;8.47;60.34;99609.00;10483109;28;20242;-66
